createdAt,value
2022-09-01T00:01:50.288Z,0.10
2022-09-01T00:04:20.940Z,0.10
2022-09-01T00:06:49.129Z,0.00
2022-09-01T00:09:19.366Z,0.00
2022-09-01T00:11:50.745Z,0.00
2022-09-01T00:14:29.579Z,0.00
2022-09-01T00:17:03.641Z,0.00
2022-09-01T00:19:33.320Z,0.00
2022-09-01T00:22:00.906Z,0.00
2022-09-01T00:24:28.639Z,0.00
2022-09-01T00:26:56.785Z,0.00
2022-09-01T00:29:26.062Z,0.10
2022-09-01T00:31:53.205Z,0.00
2022-09-01T00:34:20.375Z,0.00
2022-09-01T00:36:48.227Z,0.00
2022-09-01T00:39:16.089Z,0.00
2022-09-01T00:41:44.962Z,0.00
2022-09-01T00:44:19.077Z,0.00
2022-09-01T00:46:55.136Z,0.00
2022-09-01T00:49:23.209Z,0.00
2022-09-01T00:51:55.731Z,0.00
2022-09-01T00:54:27.564Z,0.00
2022-09-01T00:56:57.722Z,0.00
2022-09-01T00:59:27.504Z,0.00
2022-09-01T01:01:55.388Z,0.00
2022-09-01T01:04:23.123Z,0.00
2022-09-01T01:06:58.840Z,0.00
2022-09-01T01:09:29.190Z,0.00
2022-09-01T01:12:00.246Z,0.00
2022-09-01T01:14:31.467Z,0.00
2022-09-01T01:17:00.521Z,0.00
2022-09-01T01:20:01.412Z,0.00
2022-09-01T01:22:59.186Z,0.00
2022-09-01T01:25:26.826Z,0.00
2022-09-01T01:28:14.462Z,0.00
2022-09-01T01:30:51.221Z,0.00
2022-09-01T01:33:24.963Z,0.00
2022-09-01T01:35:53.919Z,0.00
2022-09-01T01:38:23.003Z,0.00
2022-09-01T01:40:51.955Z,0.00
2022-09-01T01:43:23.187Z,0.00
2022-09-01T01:45:52.891Z,0.00
2022-09-01T01:48:24.588Z,0.00
2022-09-01T01:50:53.816Z,0.00
2022-09-01T01:53:22.205Z,0.00
2022-09-01T01:55:49.749Z,0.00
2022-09-01T01:58:22.435Z,0.00
2022-09-01T02:00:50.965Z,0.00
2022-09-01T02:03:22.062Z,0.00
2022-09-01T02:05:52.179Z,0.00
2022-09-01T02:08:21.091Z,0.00
2022-09-01T02:10:51.498Z,0.00
2022-09-01T02:13:31.199Z,0.00
2022-09-01T02:16:05.154Z,0.00
2022-09-01T02:18:36.188Z,0.00
2022-09-01T02:21:12.779Z,0.00
2022-09-01T02:23:42.396Z,0.00
2022-09-01T02:26:16.458Z,0.00
2022-09-01T02:28:47.412Z,0.00
2022-09-01T02:31:21.093Z,0.00
2022-09-01T02:33:48.721Z,0.00
2022-09-01T02:36:19.537Z,0.00
2022-09-01T02:38:53.329Z,0.00
2022-09-01T02:41:25.339Z,0.00
2022-09-01T02:43:52.643Z,0.00
2022-09-01T02:46:24.421Z,0.00
2022-09-01T02:48:52.153Z,0.00
2022-09-01T02:51:22.668Z,0.00
2022-09-01T02:53:52.279Z,0.00
2022-09-01T02:56:25.747Z,0.00
2022-09-01T02:58:53.870Z,0.00
2022-09-01T03:01:33.312Z,0.00
2022-09-01T03:04:03.061Z,0.00
2022-09-01T03:06:34.440Z,0.00
2022-09-01T03:09:03.210Z,0.00
2022-09-01T03:11:32.161Z,0.00
2022-09-01T03:13:59.960Z,0.00
2022-09-01T03:16:27.349Z,0.00
2022-09-01T03:18:54.410Z,0.00
2022-09-01T03:21:22.110Z,0.00
2022-09-01T03:23:50.684Z,0.00
2022-09-01T03:26:21.105Z,0.00
2022-09-01T03:28:50.095Z,0.00
2022-09-01T03:31:18.633Z,0.00
2022-09-01T03:33:45.959Z,0.00
2022-09-01T03:36:19.296Z,0.00
2022-09-01T03:38:50.504Z,0.00
2022-09-01T03:41:21.677Z,0.00
2022-09-01T03:43:49.798Z,0.00
2022-09-01T03:46:21.933Z,0.00
2022-09-01T03:48:55.219Z,0.00
2022-09-01T03:51:23.907Z,0.00
2022-09-01T03:53:55.196Z,0.00
2022-09-01T03:56:27.531Z,0.00
2022-09-01T03:58:57.010Z,0.00
2022-09-01T04:01:26.273Z,0.00
2022-09-01T04:03:53.772Z,0.00
2022-09-01T04:06:23.209Z,0.00
2022-09-01T04:08:53.971Z,0.00
2022-09-01T04:11:24.320Z,0.00
2022-09-01T04:13:52.398Z,0.00
2022-09-01T04:16:47.529Z,0.00
2022-09-01T04:19:20.493Z,0.00
2022-09-01T04:22:00.223Z,0.00
2022-09-01T04:24:29.515Z,0.00
2022-09-01T04:26:58.892Z,0.00
2022-09-01T04:29:29.268Z,0.00
2022-09-01T04:32:04.015Z,0.00
2022-09-01T04:34:37.374Z,0.00
2022-09-01T04:37:15.077Z,0.00
2022-09-01T04:39:53.718Z,0.00
2022-09-01T04:42:24.422Z,0.00
2022-09-01T04:44:54.021Z,0.00
2022-09-01T04:47:35.263Z,0.00
2022-09-01T04:50:13.117Z,0.00
2022-09-01T04:52:42.345Z,0.00
2022-09-01T04:55:17.680Z,0.00
2022-09-01T04:57:49.702Z,0.00
2022-09-01T05:00:23.819Z,0.00
2022-09-01T05:03:03.723Z,0.00
2022-09-01T05:05:43.167Z,0.00
2022-09-01T05:08:23.642Z,0.00
2022-09-01T05:10:55.827Z,0.00
2022-09-01T05:13:24.200Z,0.00
2022-09-01T05:16:02.404Z,0.00
2022-09-01T05:18:29.627Z,0.00
2022-09-01T05:20:57.598Z,0.00
2022-09-01T05:23:26.765Z,0.00
2022-09-01T05:25:55.025Z,0.00
2022-09-01T05:28:25.693Z,0.00
2022-09-01T05:30:54.374Z,0.00
2022-09-01T05:33:22.208Z,0.00
2022-09-01T05:35:55.683Z,0.00
2022-09-01T05:38:24.274Z,0.00
2022-09-01T05:41:03.319Z,0.00
2022-09-01T05:43:31.688Z,0.00
2022-09-01T05:46:07.375Z,0.00
2022-09-01T05:48:40.008Z,0.00
2022-09-01T05:51:22.276Z,0.00
2022-09-01T05:53:59.388Z,0.00
2022-09-01T05:56:28.235Z,0.00
2022-09-01T06:01:50.235Z,0.00
2022-09-01T06:04:17.958Z,0.00
2022-09-01T06:07:05.890Z,0.00
2022-09-01T06:09:40.025Z,0.00
2022-09-01T06:12:08.549Z,0.00
2022-09-01T06:14:35.570Z,0.00
2022-09-01T06:17:03.420Z,0.00
2022-09-01T06:19:34.792Z,0.00
2022-09-01T06:22:05.098Z,0.00
2022-09-01T06:24:32.659Z,0.00
2022-09-01T06:26:59.806Z,0.00
2022-09-01T06:29:26.732Z,0.00
2022-09-01T06:31:53.654Z,0.00
2022-09-01T06:34:21.136Z,0.00
2022-09-01T06:36:49.689Z,0.00
2022-09-01T06:39:20.202Z,0.00
2022-09-01T06:41:53.337Z,0.00
2022-09-01T06:44:23.307Z,0.00
2022-09-01T06:46:53.249Z,0.00
2022-09-01T06:49:23.599Z,0.00
2022-09-01T06:51:52.824Z,0.00
2022-09-01T06:54:21.094Z,0.00
2022-09-01T06:56:51.308Z,0.00
2022-09-01T06:59:20.840Z,0.00
2022-09-01T07:01:49.915Z,0.00
2022-09-01T07:04:20.312Z,0.00
2022-09-01T07:07:00.123Z,0.00
2022-09-01T07:09:47.722Z,0.00
2022-09-01T07:12:27.733Z,0.00
2022-09-01T07:17:50.161Z,0.00
2022-09-01T07:23:09.066Z,0.00
2022-09-01T07:26:00.625Z,0.00
2022-09-01T07:28:39.931Z,0.00
2022-09-01T07:38:03.322Z,0.10
2022-09-01T07:39:49.311Z,0.10
2022-09-01T07:45:26.853Z,0.10
2022-09-01T07:47:56.796Z,0.20
2022-09-01T07:50:38.519Z,0.20
2022-09-01T07:53:08.639Z,0.10
2022-09-01T07:55:35.643Z,0.10
2022-09-01T07:58:02.696Z,0.20
2022-09-01T08:00:31.999Z,0.20
2022-09-01T08:03:00.182Z,0.20
2022-09-01T08:05:28.933Z,0.20
2022-09-01T08:07:55.909Z,0.13
2022-09-01T08:10:22.879Z,0.20
2022-09-01T08:12:57.532Z,0.10
2022-09-01T08:16:06.808Z,0.10
2022-09-01T08:18:14.951Z,0.10
2022-09-01T08:20:47.564Z,0.13
2022-09-01T08:23:18.497Z,0.10
2022-09-01T08:25:47.499Z,0.10
2022-09-01T08:28:15.823Z,0.10
2022-09-01T08:30:47.162Z,0.10
2022-09-01T08:33:19.487Z,0.10
2022-09-01T08:35:48.386Z,0.10
2022-09-01T08:38:15.710Z,0.10
2022-09-01T08:40:49.703Z,0.10
2022-09-01T08:43:40.585Z,0.10
2022-09-01T08:46:15.373Z,0.10
2022-09-01T08:51:42.979Z,0.10
2022-09-01T08:54:31.963Z,0.20
2022-09-01T08:57:07.064Z,0.20
2022-09-01T08:59:34.335Z,0.20
2022-09-01T09:02:49.845Z,0.20
2022-09-01T09:05:22.996Z,0.30
2022-09-01T09:08:33.431Z,0.20
2022-09-01T09:11:03.874Z,0.30
2022-09-01T09:13:46.053Z,0.20
2022-09-01T09:16:28.920Z,0.30
2022-09-01T09:19:04.305Z,0.30
2022-09-01T09:21:38.982Z,0.20
2022-09-01T09:24:20.785Z,0.20
2022-09-01T09:26:54.402Z,0.20
2022-09-01T09:29:23.305Z,0.20
2022-09-01T09:32:06.414Z,0.20
2022-09-01T09:34:42.169Z,0.20
2022-09-01T09:37:31.141Z,0.20
2022-09-01T09:40:15.117Z,0.20
2022-09-01T09:42:54.641Z,0.20
2022-09-01T09:45:23.635Z,0.20
2022-09-01T09:47:51.904Z,0.30
2022-09-01T09:50:26.761Z,0.20
2022-09-01T09:53:11.255Z,0.20
2022-09-01T09:55:56.072Z,0.30
2022-09-01T09:58:28.035Z,0.20
2022-09-01T10:01:05.528Z,0.20
2022-09-01T10:03:45.985Z,0.30
2022-09-01T10:06:30.668Z,0.20
2022-09-01T10:08:58.263Z,0.30
2022-09-01T10:11:49.064Z,0.20
2022-09-01T10:14:35.931Z,0.23
2022-09-01T10:17:16.362Z,0.23
2022-09-01T10:19:58.445Z,0.27
2022-09-01T10:22:26.024Z,0.20
2022-09-01T10:24:53.186Z,0.30
2022-09-01T10:27:24.458Z,0.23
2022-09-01T10:30:20.421Z,0.30
2022-09-01T10:32:55.954Z,0.30
2022-09-01T10:35:30.762Z,0.30
2022-09-01T10:38:00.163Z,0.20
2022-09-01T10:40:31.571Z,0.30
2022-09-01T10:43:21.873Z,0.30
2022-09-01T10:45:54.827Z,0.20
2022-09-01T10:48:32.557Z,0.20
2022-09-01T10:51:18.213Z,0.30
2022-09-01T10:53:54.076Z,0.30
2022-09-01T10:56:44.304Z,0.20
2022-09-01T10:59:38.582Z,0.30
2022-09-01T11:02:34.669Z,0.23
2022-09-01T11:05:00.252Z,0.20
2022-09-01T11:08:00.439Z,0.30
2022-09-01T11:10:38.662Z,0.30
2022-09-01T11:13:27.566Z,0.20
2022-09-01T11:15:54.859Z,0.30
2022-09-01T11:18:29.471Z,0.30
2022-09-01T11:21:16.211Z,0.30
2022-09-01T11:23:43.697Z,0.20
2022-09-01T11:26:35.900Z,0.27
2022-09-01T11:29:02.939Z,0.30
2022-09-01T11:31:42.617Z,0.30
2022-09-01T11:34:20.069Z,0.30
2022-09-01T11:37:00.434Z,0.20
2022-09-01T11:39:36.407Z,0.30
2022-09-01T11:42:16.999Z,0.20
2022-09-01T11:44:47.578Z,0.20
2022-09-01T11:47:26.669Z,0.20
2022-09-01T11:50:02.396Z,0.30
2022-09-01T11:52:35.969Z,0.30
2022-09-01T11:55:04.958Z,0.23
2022-09-01T11:57:40.342Z,0.20
2022-09-01T12:00:13.023Z,0.20
2022-09-01T12:02:52.349Z,0.30
2022-09-01T12:05:31.264Z,0.20
2022-09-01T12:07:59.445Z,0.30
2022-09-01T12:10:37.989Z,0.30
2022-09-01T12:13:10.910Z,0.30
2022-09-01T12:16:06.929Z,0.30
2022-09-01T12:18:39.807Z,0.20
2022-09-01T12:21:10.420Z,0.30
2022-09-01T12:23:49.270Z,0.30
2022-09-01T12:26:21.618Z,0.20
2022-09-01T12:28:49.950Z,0.30
2022-09-01T12:31:24.175Z,0.30
2022-09-01T12:33:52.908Z,0.30
2022-09-01T12:36:35.867Z,0.20
2022-09-01T12:39:18.205Z,0.30
2022-09-01T12:41:47.340Z,0.30
2022-09-01T12:44:51.543Z,0.30
2022-09-01T12:47:33.795Z,0.30
2022-09-01T12:50:13.949Z,0.20
2022-09-01T12:52:52.394Z,0.30
2022-09-01T12:58:13.289Z,0.30
2022-09-01T13:01:01.203Z,0.30
2022-09-01T13:03:30.238Z,0.20
2022-09-01T13:05:59.945Z,0.20
2022-09-01T13:08:30.358Z,0.30
2022-09-01T13:11:21.403Z,0.30
2022-09-01T13:13:48.546Z,0.20
2022-09-01T13:16:15.677Z,0.30
2022-09-01T13:21:32.467Z,0.20
2022-09-01T13:23:59.543Z,0.30
2022-09-01T13:26:26.872Z,0.20
2022-09-01T13:28:54.076Z,0.30
2022-09-01T13:31:29.565Z,0.30
2022-09-01T13:34:22.651Z,0.20
2022-09-01T13:36:49.642Z,0.20
2022-09-01T13:39:19.051Z,0.30
2022-09-01T13:41:47.784Z,0.30
2022-09-01T13:44:17.289Z,0.30
2022-09-01T13:47:28.599Z,0.30
2022-09-01T13:52:21.688Z,0.23
2022-09-01T13:54:48.864Z,0.30
2022-09-01T13:57:16.675Z,0.30
2022-09-01T13:59:44.780Z,0.30
2022-09-01T14:02:12.172Z,0.20
2022-09-01T14:04:39.592Z,0.30
2022-09-01T14:07:06.794Z,0.20
2022-09-01T14:09:34.368Z,0.20
2022-09-01T14:12:01.339Z,0.27
2022-09-01T14:15:10.515Z,0.20
2022-09-01T14:17:15.922Z,0.30
2022-09-01T14:19:43.002Z,0.30
2022-09-01T14:22:09.976Z,0.30
2022-09-01T14:24:40.310Z,0.30
2022-09-01T14:27:08.167Z,0.20
2022-09-01T14:32:04.174Z,0.30
2022-09-01T14:34:31.157Z,0.20
2022-09-01T14:36:58.261Z,0.30
2022-09-01T14:39:26.524Z,0.30
2022-09-01T14:41:53.482Z,0.20
2022-09-01T14:44:20.519Z,0.20
2022-09-01T14:46:47.579Z,0.20
2022-09-01T14:49:20.292Z,0.23
2022-09-01T14:54:38.044Z,0.20
2022-09-01T14:59:53.542Z,0.30
2022-09-01T15:02:20.469Z,0.20
2022-09-01T15:04:47.640Z,0.27
2022-09-01T15:07:15.352Z,0.20
2022-09-01T15:09:42.667Z,0.40
2022-09-01T15:12:09.804Z,0.20
2022-09-01T15:14:37.808Z,0.20
2022-09-01T15:17:05.672Z,0.20
2022-09-01T15:19:32.999Z,0.20
2022-09-01T15:22:00.977Z,0.20
2022-09-01T15:24:28.108Z,0.20
2022-09-01T15:26:55.140Z,0.20
2022-09-01T15:29:22.101Z,0.20
2022-09-01T15:31:49.218Z,0.20
2022-09-01T15:34:18.294Z,0.20
2022-09-01T15:36:45.576Z,0.30
2022-09-01T15:39:12.559Z,0.20
2022-09-01T15:41:39.653Z,0.20
2022-09-01T15:44:08.091Z,0.20
2022-09-01T15:46:39.009Z,0.20
2022-09-01T15:49:09.150Z,0.20
2022-09-01T15:51:44.506Z,0.20
2022-09-01T15:54:14.846Z,0.20
2022-09-01T15:56:43.092Z,0.20
2022-09-01T15:59:10.773Z,0.20
2022-09-01T16:01:41.094Z,0.20
2022-09-01T16:04:15.812Z,0.20
2022-09-01T16:06:45.159Z,0.30
2022-09-01T16:09:13.206Z,0.20
2022-09-01T16:11:41.349Z,0.20
2022-09-01T16:14:08.459Z,0.30
2022-09-01T16:16:49.210Z,0.30
2022-09-01T16:19:56.616Z,0.20
2022-09-01T16:22:35.748Z,0.23
2022-09-01T16:25:12.126Z,0.20
2022-09-01T16:27:45.792Z,0.20
2022-09-01T16:30:22.390Z,0.20
2022-09-01T16:32:50.043Z,0.20
2022-09-01T16:35:19.809Z,0.20
2022-09-01T16:37:53.947Z,0.30
2022-09-01T16:40:29.933Z,0.20
2022-09-01T16:43:26.344Z,0.20
2022-09-01T16:46:29.834Z,0.20
2022-09-01T16:49:23.015Z,0.23
2022-09-01T16:52:22.139Z,0.20
2022-09-01T16:55:06.090Z,0.20
2022-09-01T16:57:59.315Z,0.20
2022-09-01T17:00:38.319Z,0.20
2022-09-01T17:03:19.246Z,0.20
2022-09-01T17:06:05.173Z,0.20
2022-09-01T17:08:36.243Z,0.20
2022-09-01T17:11:19.160Z,0.20
2022-09-01T17:13:51.879Z,0.30
2022-09-01T17:16:29.068Z,0.20
2022-09-01T17:19:01.675Z,0.20
2022-09-01T17:21:53.028Z,0.20
2022-09-01T17:24:28.131Z,0.20
2022-09-01T17:27:07.747Z,0.30
2022-09-01T17:29:48.135Z,0.20
2022-09-01T17:32:30.768Z,0.20
2022-09-01T17:35:11.285Z,0.20
2022-09-01T17:37:53.296Z,0.20
2022-09-01T17:40:44.847Z,0.20
2022-09-01T17:44:03.041Z,0.20
2022-09-01T17:46:40.327Z,0.20
2022-09-01T17:49:22.778Z,0.20
2022-09-01T17:52:26.350Z,0.20
2022-09-01T17:55:38.335Z,0.10
2022-09-01T17:58:20.833Z,0.20
2022-09-01T18:01:01.833Z,0.10
2022-09-01T18:03:44.840Z,0.20
2022-09-01T18:06:27.141Z,0.20
2022-09-01T18:08:58.410Z,0.20
2022-09-01T18:11:50.692Z,0.20
2022-09-01T18:14:20.846Z,0.20
2022-09-01T18:17:03.887Z,0.20
2022-09-01T18:19:40.317Z,0.20
2022-09-01T18:22:13.831Z,0.20
2022-09-01T18:24:51.354Z,0.20
2022-09-01T18:27:18.724Z,0.20
2022-09-01T18:29:51.150Z,0.20
2022-09-01T18:32:33.399Z,0.20
2022-09-01T18:35:00.465Z,0.10
2022-09-01T18:38:10.143Z,0.10
2022-09-01T18:40:43.631Z,0.20
2022-09-01T18:43:14.552Z,0.10
2022-09-01T18:46:10.426Z,0.20
2022-09-01T18:48:54.752Z,0.10
2022-09-01T18:51:26.046Z,0.10
2022-09-01T18:54:09.546Z,0.10
2022-09-01T18:56:56.990Z,0.10
2022-09-01T18:59:37.328Z,0.10
2022-09-01T19:02:42.137Z,0.20
2022-09-01T19:05:21.531Z,0.20
2022-09-01T19:07:55.744Z,0.10
2022-09-01T19:11:20.903Z,0.10
2022-09-01T19:14:00.376Z,0.13
2022-09-01T19:16:49.314Z,0.10
2022-09-01T19:19:51.630Z,0.10
2022-09-01T19:22:34.854Z,0.10
2022-09-01T19:25:24.554Z,0.10
2022-09-01T19:28:02.919Z,0.10
2022-09-01T19:30:35.538Z,0.17
2022-09-01T19:33:05.661Z,0.20
2022-09-01T19:35:36.612Z,0.20
2022-09-01T19:38:09.053Z,0.20
2022-09-01T19:40:39.613Z,0.20
2022-09-01T19:43:15.719Z,0.20
2022-09-01T19:46:00.485Z,0.10
2022-09-01T19:48:40.595Z,0.10
2022-09-01T19:51:20.743Z,0.10
2022-09-01T19:54:17.078Z,0.20
2022-09-01T19:56:53.649Z,0.10
2022-09-01T19:59:46.457Z,0.10
2022-09-01T20:02:21.230Z,0.10
2022-09-01T20:05:12.299Z,0.10
2022-09-01T20:08:01.160Z,0.10
2022-09-01T20:10:31.741Z,0.10
2022-09-01T20:13:14.779Z,0.10
2022-09-01T20:15:51.860Z,0.20
2022-09-01T20:18:29.781Z,0.10
2022-09-01T20:21:02.571Z,0.13
2022-09-01T20:23:36.795Z,0.10
2022-09-01T20:26:09.635Z,0.10
2022-09-01T20:29:04.560Z,0.10
2022-09-01T20:31:37.060Z,0.10
2022-09-01T20:34:29.354Z,0.10
2022-09-01T20:37:37.490Z,0.10
2022-09-01T20:40:27.433Z,0.10
2022-09-01T20:43:12.780Z,0.10
2022-09-01T20:45:40.508Z,0.10
2022-09-01T20:48:16.141Z,0.00
2022-09-01T20:50:43.550Z,0.10
2022-09-01T20:53:16.613Z,0.10
2022-09-01T20:56:13.640Z,0.10
2022-09-01T20:58:46.436Z,0.10
2022-09-01T21:01:29.739Z,0.10
2022-09-01T21:04:06.404Z,0.10
2022-09-01T21:06:59.794Z,0.10
2022-09-01T21:09:46.396Z,0.10
2022-09-01T21:12:29.408Z,0.10
2022-09-01T21:15:05.323Z,0.10
2022-09-01T21:17:38.251Z,0.10
2022-09-01T21:20:40.397Z,0.10
2022-09-01T21:23:07.417Z,0.10
2022-09-01T21:25:34.854Z,0.10
2022-09-01T21:28:06.628Z,0.10
2022-09-01T21:30:35.411Z,0.10
2022-09-01T21:33:03.137Z,0.10
2022-09-01T21:35:30.862Z,0.10
2022-09-01T21:37:57.823Z,0.10
2022-09-01T21:40:25.925Z,0.10
2022-09-01T21:43:03.204Z,0.10
2022-09-01T21:45:33.019Z,0.10
2022-09-01T21:48:01.309Z,0.10
2022-09-01T21:50:28.854Z,0.10
2022-09-01T21:52:55.999Z,0.10
2022-09-01T21:55:24.169Z,0.00
2022-09-01T21:57:52.078Z,0.10
2022-09-01T22:00:25.503Z,0.03
2022-09-01T22:02:53.106Z,0.07
2022-09-01T22:05:20.907Z,0.10
2022-09-01T22:07:48.095Z,0.10
2022-09-01T22:10:17.973Z,0.00
2022-09-01T22:12:47.091Z,0.00
2022-09-01T22:15:17.013Z,0.10
2022-09-01T22:17:45.164Z,0.00
2022-09-01T22:20:15.034Z,0.10
2022-09-01T22:22:42.817Z,0.00
2022-09-01T22:25:13.340Z,0.10
2022-09-01T22:27:40.541Z,0.00
2022-09-01T22:30:09.523Z,0.00
2022-09-01T22:32:37.916Z,0.00
2022-09-01T22:35:07.746Z,0.10
2022-09-01T22:37:35.622Z,0.10
2022-09-01T22:40:03.481Z,0.10
2022-09-01T22:42:30.466Z,0.10
2022-09-01T22:44:57.481Z,0.10
2022-09-01T22:47:24.569Z,0.00
2022-09-01T22:49:51.567Z,0.10
2022-09-01T22:52:18.511Z,0.00
2022-09-01T22:54:45.563Z,0.10
2022-09-01T22:57:12.626Z,0.00
2022-09-01T22:59:43.337Z,0.00
2022-09-01T23:02:11.081Z,0.00
2022-09-01T23:04:40.380Z,0.10
2022-09-01T23:07:07.769Z,0.00
2022-09-01T23:09:35.275Z,0.10
2022-09-01T23:12:02.617Z,0.00
2022-09-01T23:14:29.620Z,0.00
2022-09-01T23:16:56.635Z,0.03
2022-09-01T23:19:24.194Z,0.00
2022-09-01T23:21:51.975Z,0.00
2022-09-01T23:24:20.188Z,0.00
2022-09-01T23:26:48.179Z,0.00
2022-09-01T23:29:15.221Z,0.00
2022-09-01T23:31:43.932Z,0.00
2022-09-01T23:34:13.316Z,0.00
2022-09-01T23:36:41.262Z,0.00
2022-09-01T23:39:08.508Z,0.00
2022-09-01T23:41:38.132Z,0.00
2022-09-01T23:44:09.410Z,0.00
2022-09-01T23:46:43.328Z,0.00
2022-09-01T23:49:14.857Z,0.00
2022-09-01T23:51:42.249Z,0.00
2022-09-01T23:54:09.543Z,0.00
2022-09-01T23:56:38.014Z,0.00
2022-09-01T23:59:05.374Z,0.00
